Terminal Aerodrome Forecast
Issued by NWS Pueblo, CO

Home | Current Version | Previous Version | Text Only | Print | Product List | Glossary On
Versions: 1 2 3 4 5 6 7 8 9 10 11 12 13 14 15 16 17 18 19 20 21 22 23 24 25
000
FTUS45 KPUB 291733
TAFPUB
TAF
KPUB 291733Z 2918/3018 02011KT 2SM -SN BR FEW005 OVC009
      TEMPO 2918/2922 3/4SM -SN BR SCT004 OVC005
     FM300200 33010KT P6SM VCSH SCT009 BKN020
     FM300800 VRB06KT P6SM FEW009 BKN030=

USA.gov is the U.S. government's official web portal to all federal, state and local government web resources and services.